Time;durP1;ratioP1;P1;durP2;ratioP2;P2;SDS_P1;SDS_P2;PMS_P1;PMS_P2;Temp;Humidity;BMP_temperature;BMP_pressure;BME280_temperature;BME280_humidity;BME280_pressure;Samples;Min_cycle;Max_cycle;Signal;HPM_P1;HPM_P2
2022/08/11 00:02:00;;;;;;;3.88;2.75;;;;;;;;;;5029525;28;20036;-70
2022/08/11 00:04:26;;;;;;;4.22;2.45;;;;;;;;;;5029908;28;20033;-71
2022/08/11 00:06:52;;;;;;;4.55;2.47;;;;;;;;;;5029140;28;20022;-70
2022/08/11 00:09:30;;;;;;;3.88;2.55;;;;;;;;;;5029457;28;20125;-71
2022/08/11 00:11:56;;;;;;;3.80;2.38;;;;;;;;;;5029338;28;20121;-71
2022/08/11 00:14:27;;;;;;;4.45;2.55;;;;;;;;;;5029715;28;20095;-71
2022/08/11 00:16:58;;;;;;;3.72;2.60;;;;;;;;;;5029374;28;20025;-71
2022/08/11 00:19:27;;;;;;;4.55;2.83;;;;;;;;;;5029602;28;20077;-71
2022/08/11 00:21:54;;;;;;;4.32;2.63;;;;;;;;;;5029131;28;20508;-71
2022/08/11 00:24:20;;;;;;;5.18;2.63;;;;;;;;;;5029085;28;20506;-71
2022/08/11 00:26:53;;;;;;;2.60;2.40;;;;;;;;;;5028953;28;20408;-70
2022/08/11 00:29:20;;;;;;;3.75;2.42;;;;;;;;;;5029164;28;20565;-71
2022/08/11 00:31:56;;;;;;;3.45;2.67;;;;;;;;;;5028659;28;20030;-70
2022/08/11 00:34:28;;;;;;;5.45;2.88;;;;;;;;;;5029492;28;20047;-70
2022/08/11 00:37:07;;;;;;;4.07;2.70;;;;;;;;;;5028726;28;20026;-68
2022/08/11 00:39:35;;;;;;;2.80;2.47;;;;;;;;;;5028832;28;20044;-70
2022/08/11 00:42:06;;;;;;;3.80;2.47;;;;;;;;;;5028801;28;20033;-71
2022/08/11 00:44:45;;;;;;;2.58;2.38;;;;;;;;;;5028838;28;20031;-70
2022/08/11 00:47:33;;;;;;;3.40;2.58;;;;;;;;;;5028606;28;20148;-70
2022/08/11 00:50:06;;;;;;;3.28;2.63;;;;;;;;;;5028185;28;20030;-71
2022/08/11 00:53:09;;;;;;;3.65;2.85;;;;;;;;;;5028583;28;20120;-70
2022/08/11 00:55:34;;;;;;;;;;;;;;;;;;5028892;28;20029;-70
2022/08/11 00:58:15;;;;;;;3.43;2.80;;;;;;;;;;5028679;28;19913;-70
2022/08/11 01:01:12;;;;;;;5.90;2.85;;;;;;;;;;5028268;28;20064;-70
2022/08/11 01:04:06;;;;;;;3.92;2.58;;;;;;;;;;5029180;28;20478;-71
2022/08/11 01:06:51;;;;;;;4.50;2.40;;;;;;;;;;5028614;28;20029;-71
2022/08/11 01:09:44;;;;;;;4.07;2.63;;;;;;;;;;5028937;28;20025;-71
2022/08/11 01:12:38;;;;;;;5.07;2.70;;;;;;;;;;5028467;28;20033;-70
2022/08/11 01:15:25;;;;;;;4.53;3.17;;;;;;;;;;5028596;28;20061;-70
2022/08/11 01:18:09;;;;;;;4.32;2.78;;;;;;;;;;5028269;28;20037;-70
2022/08/11 01:21:10;;;;;;;2.72;2.53;;;;;;;;;;5027842;28;20057;-71
2022/08/11 01:24:16;;;;;;;4.68;2.67;;;;;;;;;;5028353;28;20017;-70
2022/08/11 01:27:01;;;;;;;3.08;2.78;;;;;;;;;;5028030;28;20046;-71
2022/08/11 01:30:11;;;;;;;5.05;2.78;;;;;;;;;;5028075;28;20100;-71
2022/08/11 01:32:58;;;;;;;3.15;2.85;;;;;;;;;;4998496;28;20502;-70
2022/08/11 01:35:34;;;;;;;3.35;2.60;;;;;;;;;;5027961;28;20108;-71
2022/08/11 01:38:18;;;;;;;5.15;2.72;;;;;;;;;;5028259;28;20030;-71
2022/08/11 01:41:00;;;;;;;4.25;2.67;;;;;;;;;;5027873;28;20033;-71
2022/08/11 01:46:49;;;;;;;5.03;3.03;;;;;;;;;;5027954;28;20087;-71
2022/08/11 01:49:20;;;;;;;4.28;2.42;;;;;;;;;;5028109;28;20112;-70
2022/08/11 01:52:03;;;;;;;4.17;2.90;;;;;;;;;;5027692;28;20025;-70
2022/08/11 01:54:40;;;;;;;7.13;3.10;;;;;;;;;;5027804;28;20525;-71
2022/08/11 01:57:37;;;;;;;2.97;2.65;;;;;;;;;;5027894;28;20034;-70
2022/08/11 02:00:10;;;;;;;4.40;2.85;;;;;;;;;;4985972;28;20137;-70
2022/08/11 02:02:46;;;;;;;4.20;2.70;;;;;;;;;;5030226;28;20499;-71
2022/08/11 02:05:39;;;;;;;4.75;3.13;;;;;;;;;;5031864;28;20529;-70
2022/08/11 02:08:13;;;;;;;;;;;;;;;;;;5032167;28;20029;-71
2022/08/11 02:13:48;;;;;;;4.60;3.30;;;;;;;;;;5031625;28;20032;-70
2022/08/11 02:16:49;;;;;;;4.80;2.88;;;;;;;;;;5031410;28;20033;-71
2022/08/11 02:26:13;;;;;;;5.25;2.95;;;;;;;;;;5031547;28;20257;-70
2022/08/11 02:29:10;;;;;;;5.20;3.10;;;;;;;;;;5031251;28;20025;-70
2022/08/11 02:34:41;;;;;;;3.92;2.70;;;;;;;;;;5031272;28;20635;-70
2022/08/11 02:37:27;;;;;;;4.35;2.90;;;;;;;;;;5031141;28;20052;-70
2022/08/11 02:40:38;;;;;;;4.03;2.88;;;;;;;;;;5030845;28;20058;-71
2022/08/11 02:43:09;;;;;;;2.97;2.67;;;;;;;;;;5000853;28;20033;-71
2022/08/11 02:46:03;;;;;;;4.60;3.00;;;;;;;;;;5030936;28;20030;-70
2022/08/11 02:51:56;;;;;;;3.33;2.80;;;;;;;;;;5030718;28;20091;-71
2022/08/11 02:54:21;;;;;;;3.10;2.80;;;;;;;;;;5030960;28;20025;-70
2022/08/11 02:56:59;;;;;;;4.70;2.70;;;;;;;;;;5030707;28;20028;-71
2022/08/11 02:59:51;;;;;;;3.20;2.90;;;;;;;;;;5031024;28;20037;-71
2022/08/11 03:02:50;;;;;;;5.05;2.55;;;;;;;;;;5030945;28;20525;-71
2022/08/11 03:05:16;;;;;;;5.38;3.10;;;;;;;;;;5030710;28;20029;-70
2022/08/11 03:07:55;;;;;;;6.85;2.92;;;;;;;;;;5030639;28;20052;-71
2022/08/11 03:10:44;;;;;;;3.60;3.00;;;;;;;;;;5030791;28;20230;-70
2022/08/11 03:19:17;;;;;;;3.42;2.80;;;;;;;;;;5030563;28;20064;-70
2022/08/11 03:22:20;;;;;;;3.85;3.15;;;;;;;;;;5030550;28;20044;-71
2022/08/11 03:25:04;;;;;;;4.57;2.95;;;;;;;;;;5030497;28;20033;-70
2022/08/11 03:27:36;;;;;;;3.22;2.70;;;;;;;;;;5030110;28;20033;-70
2022/08/11 03:30:12;;;;;;;4.30;3.08;;;;;;;;;;5030190;28;20108;-71
2022/08/11 03:35:53;;;;;;;5.00;3.20;;;;;;;;;;5030149;28;20060;-70
2022/08/11 03:38:26;;;;;;;3.80;2.72;;;;;;;;;;5030123;28;20286;-70
2022/08/11 03:44:08;;;;;;;3.58;3.20;;;;;;;;;;5029951;28;20036;-70
2022/08/11 03:46:48;;;;;;;6.80;3.20;;;;;;;;;;5030065;28;20052;-70
2022/08/11 03:49:26;;;;;;;6.78;3.85;;;;;;;;;;5029987;28;20030;-70
2022/08/11 03:52:01;;;;;;;7.05;3.38;;;;;;;;;;5030068;28;20029;-71
2022/08/11 03:54:50;;;;;;;3.58;3.15;;;;;;;;;;5030171;28;20030;-70
2022/08/11 03:57:37;;;;;;;6.45;3.15;;;;;;;;;;5029830;28;20013;-70
2022/08/11 04:00:31;;;;;;;6.38;3.00;;;;;;;;;;5029361;28;20472;-70
2022/08/11 04:03:27;;;;;;;3.80;3.25;;;;;;;;;;5029488;28;20064;-70
2022/08/11 04:06:30;;;;;;;3.33;3.03;;;;;;;;;;5029531;28;20438;-70
2022/08/11 04:09:37;;;;;;;11.43;3.30;;;;;;;;;;5029389;28;20038;-70
2022/08/11 04:12:25;;;;;;;3.40;3.00;;;;;;;;;;5028021;28;20022;-70
2022/08/11 04:18:33;;;;;;;3.95;3.13;;;;;;;;;;5029507;28;20056;-71
2022/08/11 04:21:14;;;;;;;10.52;3.63;;;;;;;;;;5028678;28;20029;-71
2022/08/11 04:24:03;;;;;;;4.35;3.35;;;;;;;;;;5029167;28;20414;-70
2022/08/11 04:26:56;;;;;;;5.32;3.15;;;;;;;;;;5028126;28;20035;-71
2022/08/11 04:29:57;;;;;;;3.55;3.13;;;;;;;;;;5029043;28;20479;-71
2022/08/11 04:32:56;;;;;;;4.90;3.00;;;;;;;;;;5028940;28;20112;-71
2022/08/11 04:35:42;;;;;;;5.85;3.10;;;;;;;;;;5028768;28;20021;-70
2022/08/11 04:38:37;;;;;;;3.53;3.22;;;;;;;;;;5028862;28;20033;-71
2022/08/11 04:41:22;;;;;;;4.90;2.92;;;;;;;;;;5028602;28;20028;-71
2022/08/11 04:44:15;;;;;;;5.53;3.17;;;;;;;;;;5028780;28;20029;-70
2022/08/11 04:47:07;;;;;;;3.95;3.10;;;;;;;;;;5028446;28;20390;-70
2022/08/11 05:02:17;;;;;;;;;;;;;;;;;;5028942;28;20128;-71
2022/08/11 05:08:28;;;;;;;4.93;3.20;;;;;;;;;;5028955;28;20040;-71
2022/08/11 05:10:59;;;;;;;5.70;3.40;;;;;;;;;;5028158;28;20383;-71
2022/08/11 05:36:36;;;;;;;4.65;3.22;;;;;;;;;;5028475;28;20064;-70
2022/08/11 05:58:39;;;;;;;4.18;3.78;;;;;;;;;;5032345;28;20079;-71
2022/08/11 06:01:05;;;;;;;5.45;3.70;;;;;;;;;;5031459;28;20454;-71
2022/08/11 06:04:12;;;;;;;4.50;3.60;;;;;;;;;;5031537;28;20041;-71
2022/08/11 06:06:24;;;;;;;3.72;3.42;;;;;;;;;;5017818;28;20068;-73
2022/08/11 06:08:55;;;;;;;8.82;3.80;;;;;;;;;;5028499;28;20083;-73
2022/08/11 06:11:22;;;;;;;4.18;3.40;;;;;;;;;;5011675;28;20029;-74
2022/08/11 06:13:47;;;;;;;4.35;3.40;;;;;;;;;;5030428;28;20384;-74
2022/08/11 06:16:16;;;;;;;4.30;3.53;;;;;;;;;;5012746;28;20078;-73
2022/08/11 06:18:48;;;;;;;3.90;3.03;;;;;;;;;;5030188;28;20428;-74
2022/08/11 06:21:15;;;;;;;7.07;3.37;;;;;;;;;;5025738;28;20091;-74
2022/08/11 06:23:41;;;;;;;4.68;3.50;;;;;;;;;;5033152;28;20036;-73
2022/08/11 06:26:08;;;;;;;6.30;3.60;;;;;;;;;;5031022;28;20125;-74
2022/08/11 06:28:36;;;;;;;5.25;3.10;;;;;;;;;;5028670;28;20025;-75
2022/08/11 06:31:15;;;;;;;3.58;2.92;;;;;;;;;;5028926;28;20063;-75
2022/08/11 06:33:56;;;;;;;4.35;3.30;;;;;;;;;;5031776;28;20025;-73
2022/08/11 06:36:33;;;;;;;6.90;3.50;;;;;;;;;;5024662;28;20021;-75
2022/08/11 06:39:12;;;;;;;6.30;3.00;;;;;;;;;;5039546;28;20291;-73
2022/08/11 06:41:46;;;;;;;3.17;2.88;;;;;;;;;;5049158;28;20029;-75
2022/08/11 06:44:15;;;;;;;8.18;3.17;;;;;;;;;;5044325;28;20028;-74
2022/08/11 06:46:49;;;;;;;3.90;2.75;;;;;;;;;;5031270;28;20440;-74
2022/08/11 06:52:05;;;;;;;6.63;3.13;;;;;;;;;;5030403;28;20064;-73
2022/08/11 06:54:43;;;;;;;3.40;3.00;;;;;;;;;;5028879;28;20022;-74
2022/08/11 07:02:51;;;;;;;4.57;2.78;;;;;;;;;;5030556;28;20540;-74
2022/08/11 07:05:24;;;;;;;4.15;2.90;;;;;;;;;;5026681;28;20052;-74
2022/08/11 07:28:53;;;;;;;4.20;2.92;;;;;;;;;;5024053;28;20403;-74
2022/08/11 07:28:59;;;;;;;3.42;3.00;;;;;;;;;;5027407;28;20734;-72
2022/08/11 07:31:27;;;;;;;5.05;2.58;;;;;;;;;;5026384;28;20116;-72
2022/08/11 07:34:02;;;;;;;3.33;2.60;;;;;;;;;;5026463;28;20021;-72
2022/08/11 07:36:30;;;;;;;4.80;2.65;;;;;;;;;;5026390;28;20025;-73
2022/08/11 07:38:56;;;;;;;4.93;2.78;;;;;;;;;;5024952;28;20128;-71
2022/08/11 07:41:23;;;;;;;3.67;2.60;;;;;;;;;;5026194;28;20033;-70
2022/08/11 07:43:52;;;;;;;3.92;2.60;;;;;;;;;;5025920;28;20022;-72
2022/08/11 07:54:39;;;;;;;3.45;2.53;;;;;;;;;;5006839;28;20562;-71
2022/08/11 08:19:16;;;;;;;4.03;2.00;;;;;;;;;;5025639;28;20063;-72
2022/08/11 08:21:42;;;;;;;5.22;2.05;;;;;;;;;;5025236;28;20029;-72
2022/08/11 08:24:08;;;;;;;4.70;1.80;;;;;;;;;;5023086;28;20067;-70
2022/08/11 08:32:04;;;;;;;4.53;1.98;;;;;;;;;;5026331;28;20079;-70
2022/08/11 08:34:29;;;;;;;6.57;1.80;;;;;;;;;;5022169;28;20471;-73
2022/08/11 08:36:55;;;;;;;4.50;1.88;;;;;;;;;;5024813;28;20533;-73
2022/08/11 08:39:21;;;;;;;2.97;1.90;;;;;;;;;;5025687;28;20039;-70
2022/08/11 08:41:54;;;;;;;3.83;1.75;;;;;;;;;;5023800;28;20116;-72
2022/08/11 08:44:22;;;;;;;6.47;2.03;;;;;;;;;;5025096;28;20029;-71
2022/08/11 08:46:52;;;;;;;6.43;1.90;;;;;;;;;;5025053;28;20033;-74
2022/08/11 08:49:24;;;;;;;3.87;1.97;;;;;;;;;;5019382;28;20469;-73
2022/08/11 08:51:53;;;;;;;4.78;2.00;;;;;;;;;;5024988;28;20075;-73
2022/08/11 08:54:22;;;;;;;4.20;1.80;;;;;;;;;;5024869;28;20059;-73
2022/08/11 08:56:53;;;;;;;2.35;1.65;;;;;;;;;;5024903;28;20402;-71
2022/08/11 08:59:21;;;;;;;4.53;1.70;;;;;;;;;;5007715;28;20092;-73
2022/08/11 09:01:52;;;;;;;3.85;1.90;;;;;;;;;;5024577;28;20487;-76
2022/08/11 09:04:19;;;;;;;6.55;1.90;;;;;;;;;;5021894;28;20435;-75
2022/08/11 09:06:45;;;;;;;3.95;1.75;;;;;;;;;;5024953;28;20034;-75
2022/08/11 09:09:11;;;;;;;3.15;1.90;;;;;;;;;;5024052;28;20084;-75
2022/08/11 09:11:52;;;;;;;1.80;1.63;;;;;;;;;;5024489;28;20471;-73
2022/08/11 09:14:21;;;;;;;3.90;1.67;;;;;;;;;;5025282;28;20060;-74
2022/08/11 09:16:48;;;;;;;1.85;1.55;;;;;;;;;;5025511;28;20029;-73
2022/08/11 09:19:16;;;;;;;5.65;2.35;;;;;;;;;;5026132;28;20036;-73
2022/08/11 09:27:19;;;;;;;3.45;1.80;;;;;;;;;;5025116;28;19943;-74
2022/08/11 09:29:44;;;;;;;4.63;1.73;;;;;;;;;;5022247;28;20033;-73
2022/08/11 09:32:11;;;;;;;2.75;1.60;;;;;;;;;;5024515;28;20033;-74
2022/08/11 09:34:37;;;;;;;3.92;1.92;;;;;;;;;;5023598;28;20032;-73
2022/08/11 09:45:33;;;;;;;4.78;1.80;;;;;;;;;;5008406;28;20096;-75
2022/08/11 09:48:00;;;;;;;2.35;1.50;;;;;;;;;;5027415;28;20049;-71
2022/08/11 09:50:26;;;;;;;3.35;1.70;;;;;;;;;;5027899;28;20048;-74
2022/08/11 09:52:51;;;;;;;2.67;1.85;;;;;;;;;;5027745;28;20475;-73
2022/08/11 09:55:17;;;;;;;2.97;1.83;;;;;;;;;;5027360;28;20048;-77
2022/08/11 10:00:42;;;;;;;2.72;1.65;;;;;;;;;;5024782;28;20088;-77
2022/08/11 10:03:22;;;;;;;2.50;1.50;;;;;;;;;;5028141;28;20650;-74
2022/08/11 10:08:39;;;;;;;1.67;1.55;;;;;;;;;;5027994;28;20021;-75
2022/08/11 10:11:07;;;;;;;3.20;1.70;;;;;;;;;;5027345;28;20029;-73
2022/08/11 10:13:33;;;;;;;1.70;1.60;;;;;;;;;;5027758;28;20025;-72
2022/08/11 10:16:23;;;;;;;3.30;1.80;;;;;;;;;;5026886;28;20040;-76
2022/08/11 10:18:52;;;;;;;3.60;1.88;;;;;;;;;;5027360;28;20026;-72
2022/08/11 10:21:40;;;;;;;2.10;1.80;;;;;;;;;;5024991;28;20029;-72
2022/08/11 10:26:53;;;;;;;2.53;1.70;;;;;;;;;;5027060;28;20538;-74
2022/08/11 10:34:51;;;;;;;3.20;1.75;;;;;;;;;;5021789;28;20434;-71
2022/08/11 10:37:21;;;;;;;5.10;1.50;;;;;;;;;;5030366;28;20029;-72
2022/08/11 10:39:47;;;;;;;1.83;1.45;;;;;;;;;;5029680;28;20475;-71
2022/08/11 10:45:00;;;;;;;3.55;1.92;;;;;;;;;;5022701;28;20036;-71
2022/08/11 10:47:38;;;;;;;3.72;1.65;;;;;;;;;;5028480;28;20025;-70
2022/08/11 11:01:13;;;;;;;2.28;1.67;;;;;;;;;;5027517;28;20208;-68
2022/08/11 11:03:40;;;;;;;3.55;1.52;;;;;;;;;;5047108;28;20459;-68
2022/08/11 11:06:43;;;;;;;2.67;1.63;;;;;;;;;;5022727;28;20273;-69
2022/08/11 11:09:31;;;;;;;1.95;1.63;;;;;;;;;;5023912;28;20065;-73
2022/08/11 11:17:55;;;;;;;3.58;1.50;;;;;;;;;;5027603;28;20802;-70
2022/08/11 11:20:37;;;;;;;2.55;1.67;;;;;;;;;;5042214;28;20167;-69
2022/08/11 11:23:06;;;;;;;2.45;1.40;;;;;;;;;;5029877;28;20040;-69
2022/08/11 11:26:06;;;;;;;4.63;1.40;;;;;;;;;;5028989;28;20029;-69
2022/08/11 11:28:42;;;;;;;2.03;1.42;;;;;;;;;;5041530;28;20456;-68
2022/08/11 11:31:30;;;;;;;1.73;1.60;;;;;;;;;;5037357;28;20195;-69
2022/08/11 11:34:39;;;;;;;2.72;1.75;;;;;;;;;;5030003;28;20052;-67
2022/08/11 11:37:05;;;;;;;2.97;1.33;;;;;;;;;;5023409;28;20027;-70
2022/08/11 11:39:31;;;;;;;3.05;1.50;;;;;;;;;;5033084;28;20040;-72
2022/08/11 11:42:03;;;;;;;3.67;1.60;;;;;;;;;;5029634;28;20029;-68
2022/08/11 11:44:28;;;;;;;2.25;1.60;;;;;;;;;;5029804;28;20052;-68
2022/08/11 11:46:54;;;;;;;2.03;1.55;;;;;;;;;;5035652;28;20469;-67
2022/08/11 11:49:25;;;;;;;2.17;1.67;;;;;;;;;;5035055;28;20674;-67
2022/08/11 11:51:51;;;;;;;;;;;;;;;;;;5021613;28;20033;-68
2022/08/11 11:54:21;;;;;;;4.05;1.75;;;;;;;;;;5029817;28;19915;-70
2022/08/11 11:56:46;;;;;;;2.97;1.50;;;;;;;;;;5036119;28;20406;-69
2022/08/11 12:01:58;;;;;;;1.58;1.48;;;;;;;;;;5021516;28;20035;-73
2022/08/11 12:04:24;;;;;;;5.35;1.58;;;;;;;;;;5028389;28;20368;-75
2022/08/11 12:08:08;;;;;;;2.08;1.50;;;;;;;;;;5038559;28;20083;-72
2022/08/11 12:09:36;;;;;;;4.72;1.60;;;;;;;;;;5029629;28;20479;-70
2022/08/11 12:14:46;;;;;;;2.92;1.63;;;;;;;;;;5029498;28;20032;-74
2022/08/11 12:17:11;;;;;;;3.55;1.55;;;;;;;;;;5035991;28;20037;-72
2022/08/11 12:19:37;;;;;;;1.83;1.52;;;;;;;;;;5029714;28;20128;-72
2022/08/11 12:27:31;;;;;;;2.42;1.40;;;;;;;;;;5034944;28;20036;-67
2022/08/11 12:30:05;;;;;;;2.03;1.67;;;;;;;;;;5048482;28;20025;-69
2022/08/11 12:32:32;;;;;;;2.95;1.40;;;;;;;;;;5048703;28;20025;-73
2022/08/11 12:34:58;;;;;;;3.28;1.80;;;;;;;;;;5027411;28;20487;-69
2022/08/11 12:37:34;;;;;;;6.32;1.73;;;;;;;;;;5033806;28;20041;-72
2022/08/11 12:45:33;;;;;;;2.75;1.80;;;;;;;;;;5033148;28;20182;-68
2022/08/11 12:53:52;;;;;;;4.07;1.67;;;;;;;;;;5028227;28;20547;-68
2022/08/11 13:07:17;;;;;;;6.55;2.03;;;;;;;;;;5039768;28;20032;-71
2022/08/11 13:09:44;;;;;;;3.40;1.70;;;;;;;;;;5048300;28;20025;-71
2022/08/11 13:14:54;;;;;;;3.42;1.73;;;;;;;;;;5031275;28;20044;-70
2022/08/11 13:17:20;;;;;;;2.05;1.58;;;;;;;;;;5042245;28;20390;-72
2022/08/11 13:19:47;;;;;;;2.75;1.70;;;;;;;;;;5047800;28;20029;-71
2022/08/11 13:22:16;;;;;;;2.35;1.65;;;;;;;;;;5048417;28;20153;-69
2022/08/11 13:24:43;;;;;;;2.10;1.50;;;;;;;;;;5041379;28;20735;-73
2022/08/11 13:27:11;;;;;;;2.35;1.80;;;;;;;;;;5033895;28;20035;-70
2022/08/11 13:29:39;;;;;;;2.10;1.90;;;;;;;;;;5027493;28;20021;-68
2022/08/11 13:32:05;;;;;;;3.15;1.80;;;;;;;;;;5028125;28;20100;-71
2022/08/11 13:34:31;;;;;;;2.83;1.67;;;;;;;;;;5020177;28;20488;-69
2022/08/11 13:36:59;;;;;;;2.63;1.70;;;;;;;;;;5026675;28;20545;-70
2022/08/11 13:39:27;;;;;;;2.58;1.90;;;;;;;;;;5027891;28;20498;-70
2022/08/11 13:41:54;;;;;;;6.22;2.03;;;;;;;;;;5027716;28;20061;-70
2022/08/11 13:44:20;;;;;;;2.42;1.70;;;;;;;;;;5033238;28;20637;-69
2022/08/11 13:46:46;;;;;;;1.98;1.50;;;;;;;;;;5038494;28;20033;-69
2022/08/11 13:49:15;;;;;;;3.88;1.60;;;;;;;;;;5043765;28;20116;-71
2022/08/11 13:51:40;;;;;;;5.05;1.73;;;;;;;;;;5027704;28;20026;-67
2022/08/11 13:54:09;;;;;;;2.10;1.67;;;;;;;;;;5031950;28;20095;-69
2022/08/11 13:56:40;;;;;;;3.05;1.63;;;;;;;;;;5038343;28;20025;-71
2022/08/11 13:59:07;;;;;;;2.13;1.70;;;;;;;;;;5050468;28;20028;-70
2022/08/11 14:01:39;;;;;;;2.05;1.80;;;;;;;;;;5045404;28;20228;-69
2022/08/11 14:04:10;;;;;;;4.15;1.67;;;;;;;;;;5034929;28;20032;-70
2022/08/11 14:06:39;;;;;;;2.08;1.77;;;;;;;;;;5042275;28;20043;-71
2022/08/11 14:09:08;;;;;;;7.13;1.83;;;;;;;;;;5051519;28;20063;-68
2022/08/11 14:14:23;;;;;;;2.85;1.92;;;;;;;;;;5045698;28;20430;-72
2022/08/11 14:16:52;;;;;;;3.75;1.80;;;;;;;;;;5041937;28;20029;-72
2022/08/11 14:19:21;;;;;;;2.67;1.70;;;;;;;;;;5051468;28;20063;-70
2022/08/11 14:22:07;;;;;;;3.70;1.92;;;;;;;;;;5050674;28;20487;-70
2022/08/11 14:24:40;;;;;;;2.05;1.80;;;;;;;;;;5047281;28;20386;-73
2022/08/11 14:27:08;;;;;;;2.47;1.65;;;;;;;;;;5042930;28;20047;-71
2022/08/11 14:29:37;;;;;;;2.08;1.80;;;;;;;;;;5050889;28;20045;-69
2022/08/11 14:32:05;;;;;;;2.00;1.80;;;;;;;;;;5050886;28;20028;-69
2022/08/11 14:34:33;;;;;;;5.53;1.70;;;;;;;;;;5045543;28;20144;-69
2022/08/11 14:37:01;;;;;;;2.63;1.65;;;;;;;;;;5033731;28;20029;-68
2022/08/11 14:39:29;;;;;;;2.53;1.80;;;;;;;;;;5032658;28;20036;-68
2022/08/11 14:47:52;;;;;;;2.83;1.77;;;;;;;;;;4968385;28;20073;-70
2022/08/11 14:50:22;;;;;;;2.35;1.77;;;;;;;;;;5003320;28;20115;-70
2022/08/11 14:52:55;;;;;;;2.40;2.00;;;;;;;;;;5011089;28;20037;-69
2022/08/11 14:58:09;;;;;;;3.47;2.00;;;;;;;;;;5010931;28;20057;-71
2022/08/11 15:00:36;;;;;;;3.28;2.00;;;;;;;;;;5010661;28;20109;-68
2022/08/11 15:03:09;;;;;;;2.30;1.60;;;;;;;;;;5010648;28;20646;-71
2022/08/11 15:05:48;;;;;;;2.53;1.90;;;;;;;;;;5034847;28;20114;-70
2022/08/11 15:08:15;;;;;;;2.88;1.85;;;;;;;;;;5030290;28;20064;-70
2022/08/11 15:10:41;;;;;;;1.98;1.60;;;;;;;;;;5028914;28;20021;-72
2022/08/11 15:13:07;;;;;;;3.53;1.90;;;;;;;;;;5030263;28;20022;-71
2022/08/11 15:18:19;;;;;;;3.67;1.90;;;;;;;;;;5050318;28;20089;-71
2022/08/11 15:37:46;;;;;;;2.55;2.00;;;;;;;;;;5041789;28;20075;-69
2022/08/11 15:46:05;;;;;;;2.35;1.70;;;;;;;;;;5031730;28;20497;-68
2022/08/11 15:48:42;;;;;;;2.85;1.88;;;;;;;;;;5041492;28;20024;-70
2022/08/11 15:51:11;;;;;;;2.63;1.70;;;;;;;;;;5049296;28;20024;-72
2022/08/11 15:53:45;;;;;;;2.10;1.90;;;;;;;;;;5049524;28;20036;-72
2022/08/11 15:56:11;;;;;;;3.28;1.80;;;;;;;;;;5041193;28;20028;-71
2022/08/11 16:04:18;;;;;;;2.47;2.22;;;;;;;;;;5049437;28;20087;-71
2022/08/11 16:07:10;;;;;;;2.00;1.77;;;;;;;;;;5039530;28;20055;-74
2022/08/11 16:09:56;;;;;;;3.60;1.80;;;;;;;;;;5045973;28;20020;-71
2022/08/11 16:12:27;;;;;;;5.22;1.98;;;;;;;;;;5049236;28;20053;-70
2022/08/11 16:17:45;;;;;;;2.33;2.10;;;;;;;;;;5038570;28;20091;-70
2022/08/11 16:20:13;;;;;;;3.70;2.20;;;;;;;;;;5048818;28;20060;-68
2022/08/11 16:22:42;;;;;;;2.30;1.83;;;;;;;;;;5048724;28;20098;-68
2022/08/11 16:25:11;;;;;;;2.72;2.00;;;;;;;;;;5044500;28;20474;-68
2022/08/11 16:27:40;;;;;;;3.22;1.90;;;;;;;;;;5037461;28;20025;-70
2022/08/11 16:30:07;;;;;;;2.60;1.90;;;;;;;;;;5048882;28;20035;-67
2022/08/11 16:32:35;;;;;;;2.92;1.95;;;;;;;;;;5048854;28;20029;-66
2022/08/11 16:40:37;;;;;;;2.38;1.98;;;;;;;;;;5048800;28;20451;-68
2022/08/11 16:48:37;;;;;;;2.45;2.22;;;;;;;;;;5040376;28;20023;-70
2022/08/11 16:51:09;;;;;;;2.72;1.98;;;;;;;;;;5048601;28;20029;-69
2022/08/11 16:53:38;;;;;;;1.90;1.80;;;;;;;;;;5048423;28;20029;-69
2022/08/11 16:56:06;;;;;;;3.00;2.08;;;;;;;;;;5040708;28;20083;-68
2022/08/11 17:01:23;;;;;;;3.17;1.85;;;;;;;;;;5048462;28;20067;-68
2022/08/11 17:18:01;;;;;;;8.30;3.05;;;;;;;;;;5039735;28;20031;-68
2022/08/11 17:20:28;;;;;;;3.40;2.17;;;;;;;;;;5047804;28;20468;-69
2022/08/11 17:25:42;;;;;;;3.45;2.05;;;;;;;;;;5033457;28;20378;-69
2022/08/11 17:28:08;;;;;;;5.38;2.38;;;;;;;;;;5041240;28;20128;-70
2022/08/11 17:36:04;;;;;;;2.22;2.03;;;;;;;;;;5038384;28;20096;-70
2022/08/11 17:38:32;;;;;;;2.67;2.20;;;;;;;;;;5050570;28;20528;-70
2022/08/11 17:49:15;;;;;;;2.90;2.60;;;;;;;;;;5015450;28;20076;-69
2022/08/11 18:00:01;;;;;;;3.20;2.67;;;;;;;;;;5034177;28;20036;-71
2022/08/11 18:05:17;;;;;;;2.60;2.17;;;;;;;;;;5038718;28;20043;-70
